createdAt,value
2019-05-17T00:02:00.568Z,26.50
2019-05-17T00:04:37.233Z,26.60
2019-05-17T00:07:13.861Z,26.60
2019-05-17T00:09:50.677Z,26.70
2019-05-17T00:12:28.004Z,26.60
2019-05-17T00:15:04.410Z,26.70
2019-05-17T00:17:40.984Z,26.70
2019-05-17T00:20:17.923Z,26.80
2019-05-17T00:22:57.230Z,26.90
2019-05-17T00:25:32.586Z,27.00
2019-05-17T00:28:09.525Z,27.10
2019-05-17T00:30:47.139Z,27.10
2019-05-17T00:33:23.647Z,27.30
2019-05-17T00:36:01.172Z,27.30
2019-05-17T00:38:48.341Z,27.20
2019-05-17T00:41:17.648Z,27.40
2019-05-17T00:43:53.746Z,27.60
2019-05-17T00:46:30.371Z,27.70
2019-05-17T00:49:08.267Z,27.90
2019-05-17T00:51:47.260Z,27.90
2019-05-17T00:54:22.617Z,27.90
2019-05-17T00:56:59.588Z,27.90
2019-05-17T00:59:36.917Z,28.00
2019-05-17T01:02:16.148Z,28.20
2019-05-17T01:04:51.606Z,28.30
2019-05-17T01:07:28.407Z,28.30
2019-05-17T01:10:07.012Z,28.30
2019-05-17T01:12:43.779Z,28.30
2019-05-17T01:15:20.700Z,28.30
2019-05-17T01:17:57.400Z,28.30
2019-05-17T01:20:36.478Z,28.40
2019-05-17T01:23:12.517Z,28.70
2019-05-17T01:25:49.049Z,28.70
2019-05-17T01:28:26.946Z,29.10
2019-05-17T01:31:03.881Z,29.30
2019-05-17T01:33:40.826Z,29.30
2019-05-17T01:36:17.489Z,29.40
2019-05-17T01:38:54.265Z,29.50
2019-05-17T01:41:30.763Z,29.70
2019-05-17T01:44:07.739Z,30.10
2019-05-17T01:46:46.312Z,30.20
2019-05-17T01:49:22.067Z,30.20
2019-05-17T01:51:58.583Z,30.20
2019-05-17T01:54:36.289Z,30.20
2019-05-17T01:57:13.593Z,30.10
2019-05-17T01:59:50.049Z,30.00
2019-05-17T02:02:47.127Z,30.00
2019-05-17T02:05:23.683Z,29.90
2019-05-17T02:08:00.110Z,30.10
2019-05-17T02:10:37.548Z,30.20
2019-05-17T02:13:16.599Z,30.60
2019-05-17T02:15:53.299Z,30.90
2019-05-17T02:18:29.616Z,30.80
2019-05-17T02:21:06.765Z,30.60
2019-05-17T02:23:43.444Z,30.70
2019-05-17T02:26:19.915Z,30.70
2019-05-17T02:28:56.615Z,31.00
2019-05-17T02:31:34.570Z,31.20
2019-05-17T02:34:13.913Z,31.10
2019-05-17T02:36:53.185Z,31.20
2019-05-17T02:39:28.008Z,31.60
2019-05-17T02:42:04.215Z,31.40
2019-05-17T02:44:43.604Z,31.70
2019-05-17T02:47:19.006Z,32.00
2019-05-17T02:49:55.080Z,32.00
2019-05-17T02:52:32.866Z,32.00
2019-05-17T02:55:12.466Z,32.00
2019-05-17T02:57:47.363Z,32.20
2019-05-17T03:00:24.254Z,32.40
2019-05-17T03:03:03.203Z,32.40
2019-05-17T03:05:37.894Z,32.50
2019-05-17T03:08:14.872Z,32.70
2019-05-17T03:10:53.490Z,32.40
2019-05-17T03:13:29.127Z,32.40
2019-05-17T03:16:05.699Z,32.50
2019-05-17T03:18:43.844Z,32.60
2019-05-17T03:21:22.762Z,32.70
2019-05-17T03:23:58.185Z,32.50
2019-05-17T03:26:34.432Z,32.40
2019-05-17T03:29:13.384Z,32.20
2019-05-17T03:31:53.598Z,32.00
2019-05-17T03:34:27.481Z,32.00
2019-05-17T03:37:06.221Z,32.40
2019-05-17T03:39:42.725Z,32.50
2019-05-17T03:42:22.619Z,32.80
2019-05-17T03:45:02.620Z,32.50
2019-05-17T03:47:37.547Z,32.80
2019-05-17T03:50:14.475Z,33.00
2019-05-17T03:52:53.535Z,33.10
2019-05-17T03:55:32.765Z,33.30
2019-05-17T03:58:06.725Z,33.30
2019-05-17T04:00:43.418Z,33.50
2019-05-17T04:03:22.939Z,33.70
2019-05-17T04:05:58.154Z,33.70
2019-05-17T04:08:35.190Z,33.10
2019-05-17T04:11:22.104Z,33.30
2019-05-17T04:13:49.363Z,33.60
2019-05-17T04:16:25.866Z,33.70
2019-05-17T04:19:03.232Z,33.80
2019-05-17T04:21:42.711Z,33.60
2019-05-17T04:24:17.930Z,33.10
2019-05-17T04:26:54.181Z,33.70
2019-05-17T04:29:33.195Z,34.10
2019-05-17T04:32:09.207Z,34.00
2019-05-17T04:34:46.106Z,34.20
2019-05-17T04:37:22.889Z,34.00
2019-05-17T04:40:03.123Z,33.60
2019-05-17T04:42:37.569Z,33.60
2019-05-17T04:45:14.343Z,34.10
2019-05-17T04:47:52.847Z,34.20
2019-05-17T04:50:28.208Z,34.40
2019-05-17T04:53:04.655Z,34.30
2019-05-17T04:55:43.080Z,33.90
2019-05-17T04:58:19.151Z,34.30
2019-05-17T05:00:55.839Z,34.60
2019-05-17T05:03:32.933Z,34.60
2019-05-17T05:06:13.057Z,34.70
2019-05-17T05:08:47.500Z,34.30
2019-05-17T05:11:24.328Z,34.20
2019-05-17T05:14:02.845Z,34.50
2019-05-17T05:16:38.980Z,34.40
2019-05-17T05:19:15.338Z,34.00
2019-05-17T05:21:52.089Z,34.30
2019-05-17T05:24:31.428Z,34.30
2019-05-17T05:27:07.250Z,34.60
2019-05-17T05:29:43.724Z,34.80
2019-05-17T05:32:22.017Z,34.70
2019-05-17T05:34:58.168Z,34.60
2019-05-17T05:37:34.579Z,34.40
2019-05-17T05:40:12.625Z,34.50
2019-05-17T05:42:51.564Z,34.80
2019-05-17T05:45:27.704Z,35.00
2019-05-17T05:48:04.637Z,35.10
2019-05-17T05:50:43.107Z,35.10
2019-05-17T05:53:21.635Z,34.90
2019-05-17T05:55:56.522Z,35.10
2019-05-17T05:58:32.891Z,35.10
2019-05-17T06:01:09.363Z,34.90
2019-05-17T06:03:45.992Z,35.20
2019-05-17T06:06:23.676Z,34.90
2019-05-17T06:08:59.860Z,34.90
2019-05-17T06:11:36.532Z,34.90
2019-05-17T06:14:13.082Z,35.30
2019-05-17T06:16:51.840Z,35.30
2019-05-17T06:19:27.433Z,35.20
2019-05-17T06:22:03.700Z,35.10
2019-05-17T06:24:42.337Z,35.30
2019-05-17T06:27:17.992Z,34.40
2019-05-17T06:29:54.470Z,33.80
2019-05-17T06:32:31.674Z,33.70
2019-05-17T06:35:08.720Z,34.00
2019-05-17T06:37:45.496Z,34.70
2019-05-17T06:40:21.751Z,34.70
2019-05-17T06:42:57.864Z,34.50
2019-05-17T06:45:35.706Z,34.80
2019-05-17T06:48:12.482Z,35.40
2019-05-17T06:50:49.017Z,35.70
2019-05-17T06:53:25.673Z,35.60
2019-05-17T06:56:02.862Z,35.60
2019-05-17T06:58:38.998Z,35.70
2019-05-17T07:01:15.319Z,35.10
2019-05-17T07:03:52.006Z,34.60
2019-05-17T07:06:29.598Z,34.30
2019-05-17T07:09:09.893Z,34.10
2019-05-17T07:11:45.435Z,34.20
2019-05-17T07:14:22.011Z,34.70
2019-05-17T07:16:59.609Z,35.00
2019-05-17T07:19:36.288Z,35.20
2019-05-17T07:22:12.928Z,35.00
2019-05-17T07:24:50.260Z,34.90
2019-05-17T07:27:40.655Z,35.10
2019-05-17T07:30:05.077Z,35.40
2019-05-17T07:32:41.912Z,35.20
2019-05-17T07:35:19.807Z,35.30
2019-05-17T07:37:56.476Z,35.20
2019-05-17T07:40:33.026Z,34.80
2019-05-17T07:43:14.309Z,34.40
2019-05-17T07:45:55.774Z,34.40
2019-05-17T07:48:32.355Z,34.70
2019-05-17T07:51:10.108Z,34.40
2019-05-17T07:53:49.306Z,34.90
2019-05-17T07:56:24.698Z,35.40
2019-05-17T07:59:00.928Z,35.40
2019-05-17T08:01:37.821Z,35.40
2019-05-17T08:04:14.306Z,35.40
2019-05-17T08:06:50.943Z,35.30
2019-05-17T08:09:30.040Z,35.00
2019-05-17T08:12:06.243Z,34.80
2019-05-17T08:14:45.300Z,34.60
2019-05-17T08:17:22.115Z,34.30
2019-05-17T08:20:00.646Z,33.90
2019-05-17T08:22:39.557Z,33.90
2019-05-17T08:25:15.380Z,33.50
2019-05-17T08:27:52.181Z,34.00
2019-05-17T08:30:30.304Z,34.70
2019-05-17T08:33:10.453Z,35.10
2019-05-17T08:35:45.411Z,34.80
2019-05-17T08:38:21.864Z,34.50
2019-05-17T08:41:00.585Z,34.50
2019-05-17T08:43:45.816Z,34.50
2019-05-17T08:46:20.722Z,34.60
2019-05-17T08:48:57.093Z,34.50
2019-05-17T08:51:33.846Z,34.00
2019-05-17T08:54:10.541Z,34.10
2019-05-17T08:56:47.075Z,34.30
2019-05-17T08:59:23.849Z,34.20
2019-05-17T09:02:00.513Z,34.20
2019-05-17T09:04:37.147Z,34.10
2019-05-17T09:07:16.393Z,33.90
2019-05-17T09:09:52.850Z,33.80
2019-05-17T09:12:30.042Z,34.10
2019-05-17T09:15:06.623Z,33.70
2019-05-17T09:17:43.439Z,34.10
2019-05-17T09:20:20.493Z,34.50
2019-05-17T09:22:59.911Z,34.20
2019-05-17T09:25:35.512Z,34.00
2019-05-17T09:28:11.658Z,33.90
2019-05-17T09:30:50.536Z,33.70
2019-05-17T09:33:26.389Z,33.70
2019-05-17T09:36:03.229Z,33.70
2019-05-17T09:38:40.430Z,33.50
2019-05-17T09:41:17.122Z,33.60
2019-05-17T09:43:53.899Z,33.40
2019-05-17T09:46:30.462Z,33.30
2019-05-17T09:49:10.451Z,33.40
2019-05-17T09:51:46.314Z,33.60
2019-05-17T09:54:38.231Z,33.60
2019-05-17T09:57:01.101Z,33.60
2019-05-17T09:59:40.325Z,33.30
2019-05-17T10:02:15.788Z,33.20
2019-05-17T10:04:52.437Z,33.20
2019-05-17T10:07:29.816Z,33.50
2019-05-17T10:10:06.341Z,33.60
2019-05-17T10:12:44.029Z,33.90
2019-05-17T10:15:20.841Z,34.10
2019-05-17T10:18:00.403Z,34.30
2019-05-17T10:20:36.206Z,34.30
2019-05-17T10:23:12.754Z,34.30
2019-05-17T10:25:49.654Z,34.20
2019-05-17T10:28:26.429Z,34.00
2019-05-17T10:31:02.994Z,33.80
2019-05-17T10:33:40.102Z,33.80
2019-05-17T10:36:17.053Z,33.60
2019-05-17T10:38:53.528Z,33.60
2019-05-17T10:41:30.228Z,33.50
2019-05-17T10:44:06.678Z,33.50
2019-05-17T10:46:43.102Z,33.40
2019-05-17T10:49:20.263Z,33.30
2019-05-17T10:51:56.964Z,33.10
2019-05-17T10:54:33.759Z,33.00
2019-05-17T10:57:10.435Z,32.90
2019-05-17T10:59:49.757Z,32.80
2019-05-17T11:02:25.280Z,32.70
2019-05-17T11:05:01.729Z,32.70
2019-05-17T11:07:38.859Z,32.50
2019-05-17T11:10:16.091Z,32.40
2019-05-17T11:12:52.852Z,32.50
2019-05-17T11:15:29.199Z,32.50
2019-05-17T11:18:05.863Z,32.50
2019-05-17T11:20:43.107Z,32.50
2019-05-17T11:23:19.731Z,32.50
2019-05-17T11:25:56.751Z,32.40
2019-05-17T11:28:33.295Z,32.40
2019-05-17T11:31:10.153Z,32.30
2019-05-17T11:33:46.890Z,32.20
2019-05-17T11:36:23.223Z,32.00
2019-05-17T11:39:00.129Z,31.90
2019-05-17T11:41:36.500Z,31.70
2019-05-17T11:44:13.019Z,31.60
2019-05-17T11:46:49.664Z,31.50
2019-05-17T11:49:26.027Z,31.40
2019-05-17T11:52:03.670Z,31.40
2019-05-17T11:54:40.336Z,31.50
2019-05-17T11:57:17.109Z,31.40
2019-05-17T11:59:53.910Z,31.20
2019-05-17T12:02:30.531Z,31.10
2019-05-17T12:05:07.272Z,31.20
2019-05-17T12:07:43.593Z,31.20
2019-05-17T12:10:20.858Z,31.00
2019-05-17T12:12:57.271Z,31.10
2019-05-17T12:15:44.345Z,31.00
2019-05-17T12:18:11.667Z,31.00
2019-05-17T12:20:48.319Z,31.10
2019-05-17T12:23:24.652Z,31.00
2019-05-17T12:26:01.244Z,30.90
2019-05-17T12:28:37.917Z,30.80
2019-05-17T12:31:14.488Z,30.90
2019-05-17T12:33:51.207Z,31.00
2019-05-17T12:36:28.265Z,31.00
2019-05-17T12:39:04.618Z,30.90
2019-05-17T12:41:41.419Z,30.80
2019-05-17T12:44:17.995Z,30.90
2019-05-17T12:46:54.924Z,30.80
2019-05-17T12:49:31.419Z,30.50
2019-05-17T12:52:08.116Z,30.40
2019-05-17T12:54:45.059Z,30.50
2019-05-17T12:57:39.179Z,30.50
2019-05-17T13:00:17.088Z,30.50
2019-05-17T13:02:53.565Z,30.50
2019-05-17T13:05:29.846Z,30.50
2019-05-17T13:08:06.808Z,30.70
2019-05-17T13:10:43.570Z,30.80
2019-05-17T13:13:20.443Z,30.70
2019-05-17T13:15:57.375Z,30.80
2019-05-17T13:18:35.299Z,30.60
2019-05-17T13:21:11.832Z,30.60
2019-05-17T13:23:48.435Z,30.60
2019-05-17T13:26:25.140Z,30.60
2019-05-17T13:29:01.738Z,30.50
2019-05-17T13:31:38.719Z,30.50
2019-05-17T13:34:15.183Z,30.50
2019-05-17T13:36:51.872Z,30.50
2019-05-17T13:39:28.322Z,30.40
2019-05-17T13:42:05.097Z,30.50
2019-05-17T13:44:41.650Z,30.40
2019-05-17T13:47:17.668Z,30.50
2019-05-17T13:49:53.563Z,30.50
2019-05-17T13:52:29.754Z,30.40
2019-05-17T13:55:06.009Z,30.20
2019-05-17T13:57:42.495Z,30.00
2019-05-17T14:00:19.140Z,30.00
2019-05-17T14:02:55.569Z,30.10
2019-05-17T14:05:31.545Z,30.10
2019-05-17T14:08:07.990Z,30.20
2019-05-17T14:10:44.232Z,30.10
2019-05-17T14:13:20.740Z,30.00
2019-05-17T14:15:58.003Z,29.90
2019-05-17T14:18:34.901Z,29.90
2019-05-17T14:21:11.850Z,29.90
2019-05-17T14:23:49.362Z,29.80
2019-05-17T14:26:25.756Z,29.70
2019-05-17T14:29:02.357Z,29.60
2019-05-17T14:31:38.388Z,29.70
2019-05-17T14:34:15.019Z,29.60
2019-05-17T14:36:51.530Z,29.60
2019-05-17T14:39:28.245Z,29.60
2019-05-17T14:42:04.167Z,29.60
2019-05-17T14:44:40.763Z,29.70
2019-05-17T14:47:17.354Z,29.70
2019-05-17T14:49:54.262Z,29.70
2019-05-17T14:52:30.913Z,29.60
2019-05-17T14:55:07.642Z,29.50
2019-05-17T14:57:44.263Z,29.40
2019-05-17T15:00:21.077Z,29.40
2019-05-17T15:02:57.746Z,29.40
2019-05-17T15:05:33.771Z,29.40
2019-05-17T15:08:10.284Z,29.30
2019-05-17T15:10:47.566Z,29.40
2019-05-17T15:13:24.362Z,29.40
2019-05-17T15:16:00.890Z,29.50
2019-05-17T15:18:37.834Z,29.50
2019-05-17T15:21:14.736Z,29.40
2019-05-17T15:23:51.132Z,29.40
2019-05-17T15:26:28.671Z,29.30
2019-05-17T15:29:04.814Z,29.00
2019-05-17T15:31:41.535Z,29.20
2019-05-17T15:34:18.072Z,29.20
2019-05-17T15:36:55.102Z,29.30
2019-05-17T15:39:31.652Z,29.30
2019-05-17T15:42:08.463Z,29.20
2019-05-17T15:44:45.079Z,29.10
2019-05-17T15:47:21.622Z,29.10
2019-05-17T15:49:57.859Z,29.10
2019-05-17T15:52:34.794Z,29.10
2019-05-17T15:55:12.113Z,29.00
2019-05-17T15:57:48.470Z,29.00
2019-05-17T16:00:25.860Z,29.10
2019-05-17T16:03:02.223Z,29.20
2019-05-17T16:05:38.881Z,29.20
2019-05-17T16:08:15.779Z,29.10
2019-05-17T16:10:52.156Z,29.10
2019-05-17T16:13:28.648Z,29.00
2019-05-17T16:16:05.143Z,28.90
2019-05-17T16:18:41.818Z,28.90
2019-05-17T16:21:18.697Z,28.90
2019-05-17T16:23:55.291Z,28.90
2019-05-17T16:26:32.179Z,28.80
2019-05-17T16:29:09.060Z,28.80
2019-05-17T16:31:45.732Z,28.90
2019-05-17T16:34:22.228Z,28.90
2019-05-17T16:36:58.720Z,28.90
2019-05-17T16:39:35.134Z,28.80
2019-05-17T16:42:11.795Z,28.70
2019-05-17T16:44:48.291Z,28.60
2019-05-17T16:47:24.865Z,28.60
2019-05-17T16:50:02.546Z,28.60
2019-05-17T16:52:39.508Z,28.50
2019-05-17T16:55:16.815Z,28.60
2019-05-17T16:57:53.938Z,28.60
2019-05-17T17:00:35.993Z,28.70
2019-05-17T17:03:12.821Z,28.80
2019-05-17T17:05:49.320Z,28.70
2019-05-17T17:08:26.053Z,28.80
2019-05-17T17:11:02.881Z,28.80
2019-05-17T17:13:39.429Z,28.80
2019-05-17T17:16:16.350Z,28.90
2019-05-17T17:18:53.088Z,29.00
2019-05-17T17:21:29.758Z,29.00
2019-05-17T17:24:06.843Z,29.00
2019-05-17T17:26:43.502Z,29.00
2019-05-17T17:29:20.005Z,28.90
2019-05-17T17:31:56.719Z,29.00
2019-05-17T17:34:33.373Z,29.00
2019-05-17T17:37:09.940Z,28.90
2019-05-17T17:39:46.542Z,28.90
2019-05-17T17:42:23.430Z,28.90
2019-05-17T17:44:59.952Z,28.90
2019-05-17T17:47:36.608Z,29.00
2019-05-17T17:50:13.228Z,28.80
2019-05-17T17:52:52.037Z,28.80
2019-05-17T17:55:28.509Z,28.60
2019-05-17T17:58:05.326Z,28.60
2019-05-17T18:00:42.198Z,28.60
2019-05-17T18:03:20.031Z,28.70
2019-05-17T18:05:56.721Z,28.80
2019-05-17T18:08:34.726Z,28.70
2019-05-17T18:11:11.405Z,28.70
2019-05-17T18:13:48.115Z,28.70
2019-05-17T18:16:24.769Z,28.70
2019-05-17T18:19:01.621Z,28.70
2019-05-17T18:21:38.082Z,28.60
2019-05-17T18:24:14.705Z,28.50
2019-05-17T18:26:51.202Z,28.50
2019-05-17T18:29:28.121Z,28.60
2019-05-17T18:32:05.166Z,28.50
2019-05-17T18:34:42.969Z,28.40
2019-05-17T18:37:19.596Z,28.50
2019-05-17T18:39:55.952Z,28.50
2019-05-17T18:42:32.724Z,28.50
2019-05-17T18:45:09.783Z,28.50
2019-05-17T18:47:46.310Z,28.50
2019-05-17T18:50:22.695Z,28.40
2019-05-17T18:52:59.658Z,28.30
2019-05-17T18:55:36.481Z,28.20
2019-05-17T18:58:13.299Z,28.10
2019-05-17T19:00:50.735Z,28.20
2019-05-17T19:03:26.787Z,28.20
2019-05-17T19:06:03.381Z,28.30
2019-05-17T19:08:39.976Z,28.20
2019-05-17T19:11:16.344Z,28.20
2019-05-17T19:13:52.880Z,28.10
2019-05-17T19:16:29.403Z,28.10
2019-05-17T19:19:05.704Z,28.10
2019-05-17T19:21:42.366Z,28.10
2019-05-17T19:24:18.984Z,28.20
2019-05-17T19:26:55.327Z,28.20
2019-05-17T19:29:31.899Z,28.20
2019-05-17T19:32:08.336Z,28.20
2019-05-17T19:34:44.734Z,28.20
2019-05-17T19:37:21.174Z,28.20
2019-05-17T19:39:57.652Z,28.20
2019-05-17T19:42:34.545Z,28.10
2019-05-17T19:45:12.061Z,28.10
2019-05-17T19:47:48.516Z,28.10
2019-05-17T19:50:25.611Z,28.10
2019-05-17T19:53:02.406Z,28.00
2019-05-17T19:55:38.840Z,28.00
2019-05-17T19:58:15.172Z,28.10
2019-05-17T20:00:51.837Z,28.10
2019-05-17T20:03:29.838Z,28.10
2019-05-17T20:06:06.452Z,28.00
2019-05-17T20:08:43.223Z,27.90
2019-05-17T20:11:33.398Z,27.90
2019-05-17T20:13:57.744Z,28.00
2019-05-17T20:16:34.392Z,28.00
2019-05-17T20:19:10.869Z,28.00
2019-05-17T20:21:47.446Z,27.90
2019-05-17T20:24:24.241Z,27.90
2019-05-17T20:27:00.883Z,27.90
2019-05-17T20:29:37.310Z,27.90
2019-05-17T20:32:13.881Z,27.90
2019-05-17T20:34:50.163Z,27.80
2019-05-17T20:37:26.608Z,27.70
2019-05-17T20:40:04.994Z,27.60
2019-05-17T20:42:40.926Z,27.50
2019-05-17T20:45:32.025Z,27.60
2019-05-17T20:47:56.538Z,27.60
2019-05-17T20:50:33.166Z,27.60
2019-05-17T20:53:18.468Z,27.50
2019-05-17T20:55:48.695Z,27.60
2019-05-17T20:58:25.108Z,27.50
2019-05-17T21:01:02.069Z,27.30
2019-05-17T21:03:38.753Z,27.30
2019-05-17T21:06:15.135Z,27.40
2019-05-17T21:08:51.749Z,27.40
2019-05-17T21:11:28.120Z,27.50
2019-05-17T21:14:04.500Z,27.40
2019-05-17T21:16:40.736Z,27.20
2019-05-17T21:19:18.565Z,27.20
2019-05-17T21:21:54.963Z,27.30
2019-05-17T21:24:31.455Z,27.40
2019-05-17T21:27:08.258Z,27.40
2019-05-17T21:29:44.613Z,27.40
2019-05-17T21:32:21.306Z,27.20
2019-05-17T21:34:57.762Z,27.20
2019-05-17T21:37:34.284Z,27.20
2019-05-17T21:40:11.480Z,27.10
2019-05-17T21:42:48.506Z,27.10
2019-05-17T21:45:25.287Z,27.10
2019-05-17T21:48:02.230Z,27.20
2019-05-17T21:50:38.401Z,27.20
2019-05-17T21:53:14.843Z,27.10
2019-05-17T21:55:51.547Z,27.10
2019-05-17T21:58:28.156Z,27.10
2019-05-17T22:01:22.882Z,27.10
2019-05-17T22:03:59.539Z,27.00
2019-05-17T22:06:37.175Z,27.00
2019-05-17T22:09:15.630Z,27.10
2019-05-17T22:11:54.371Z,27.00
2019-05-17T22:14:30.713Z,27.00
2019-05-17T22:17:07.223Z,27.10
2019-05-17T22:19:44.059Z,27.00
2019-05-17T22:22:20.740Z,27.00
2019-05-17T22:24:57.713Z,26.90
2019-05-17T22:27:33.879Z,26.80
2019-05-17T22:30:10.780Z,26.80
2019-05-17T22:32:47.456Z,26.90
2019-05-17T22:35:24.224Z,26.80
2019-05-17T22:38:00.816Z,26.90
2019-05-17T22:40:37.448Z,26.80
2019-05-17T22:43:15.170Z,26.80
2019-05-17T22:45:51.451Z,26.80
2019-05-17T22:48:28.290Z,26.80
2019-05-17T22:51:04.743Z,26.90
2019-05-17T22:53:41.702Z,26.70
2019-05-17T22:56:18.060Z,26.70
2019-05-17T22:58:54.828Z,26.80
2019-05-17T23:01:33.008Z,26.90
2019-05-17T23:04:09.498Z,26.90
2019-05-17T23:06:46.347Z,27.00
2019-05-17T23:09:23.600Z,26.90
2019-05-17T23:12:00.222Z,27.10
2019-05-17T23:14:37.156Z,27.10
2019-05-17T23:17:13.613Z,27.20
2019-05-17T23:19:50.435Z,27.30
2019-05-17T23:22:27.335Z,27.30
2019-05-17T23:25:03.930Z,27.30
2019-05-17T23:27:40.805Z,27.30
2019-05-17T23:30:17.698Z,27.40
2019-05-17T23:32:54.453Z,27.30
2019-05-17T23:35:31.048Z,27.40
2019-05-17T23:38:07.946Z,27.50
2019-05-17T23:40:44.359Z,27.70
2019-05-17T23:43:21.268Z,27.80
2019-05-17T23:45:58.028Z,27.90
2019-05-17T23:48:34.560Z,28.00
2019-05-17T23:51:11.466Z,28.10
2019-05-17T23:53:48.162Z,28.20
2019-05-17T23:56:25.059Z,28.30
2019-05-17T23:59:01.342Z,28.40
